Time;durP1;ratioP1;P1;durP2;ratioP2;P2;SDS_P1;SDS_P2;PMS_P1;PMS_P2;Temp;Humidity;BMP_temperature;BMP_pressure;BME280_temperature;BME280_humidity;BME280_pressure;Samples;Min_cycle;Max_cycle;Signal;HPM_P1;HPM_P2
2022/03/01 00:01:34;;;;;;;18.23;16.43;;;1.70;99.90;;;;;;5034918;28;20206;-66
2022/03/01 00:04:00;;;;;;;18.90;16.67;;;1.70;99.90;;;;;;5031735;28;20214;-67
2022/03/01 00:06:25;;;;;;;20.33;15.87;;;1.70;99.90;;;;;;5033572;28;20175;-67
2022/03/01 00:08:53;;;;;;;20.20;15.73;;;1.80;99.90;;;;;;5027321;28;20254;-67
2022/03/01 00:11:20;;;;;;;17.77;15.93;;;1.80;99.90;;;;;;5013259;28;20259;-67
2022/03/01 00:13:46;;;;;;;16.90;15.10;;;1.80;99.90;;;;;;5016615;28;20237;-67
2022/03/01 00:16:11;;;;;;;16.53;14.90;;;1.80;99.90;;;;;;5033346;28;20175;-67
2022/03/01 00:18:37;;;;;;;18.13;14.40;;;1.80;99.90;;;;;;5031190;28;20669;-67
2022/03/01 00:21:02;;;;;;;16.70;14.57;;;1.80;99.90;;;;;;5012259;28;20760;-67
2022/03/01 00:23:28;;;;;;;16.80;15.00;;;1.80;99.90;;;;;;5030152;28;20562;-67
2022/03/01 00:25:54;;;;;;;15.87;13.77;;;1.90;99.90;;;;;;5033492;28;20251;-67
2022/03/01 00:28:20;;;;;;;20.17;14.53;;;1.90;99.90;;;;;;5031290;28;20573;-67
2022/03/01 00:30:45;;;;;;;19.43;15.23;;;1.80;99.90;;;;;;5032805;28;20198;-67
2022/03/01 00:33:11;;;;;;;15.50;13.87;;;1.80;99.90;;;;;;5031623;28;20537;-67
2022/03/01 00:35:37;;;;;;;16.87;14.53;;;1.80;99.90;;;;;;5032929;28;20245;-67
2022/03/01 00:38:02;;;;;;;19.57;14.97;;;1.80;99.90;;;;;;5021168;28;20619;-66
2022/03/01 00:40:28;;;;;;;15.67;14.07;;;1.80;99.90;;;;;;5012842;28;20208;-67
2022/03/01 00:42:53;;;;;;;17.27;15.53;;;1.80;99.90;;;;;;5013999;28;20187;-67
2022/03/01 00:45:19;;;;;;;17.07;15.37;;;1.80;99.90;;;;;;5011735;28;20172;-67
2022/03/01 00:47:45;;;;;;;19.43;16.10;;;1.70;99.90;;;;;;5013129;28;20806;-67
2022/03/01 00:50:10;;;;;;;19.33;16.80;;;1.70;99.90;;;;;;5012933;28;20196;-67
2022/03/01 00:52:36;;;;;;;18.40;15.67;;;1.70;99.90;;;;;;5018154;28;20604;-66
2022/03/01 00:55:02;;;;;;;18.27;16.03;;;1.60;99.90;;;;;;5031318;28;20262;-66
2022/03/01 00:57:28;;;;;;;20.67;15.23;;;1.60;99.90;;;;;;5028104;28;20191;-67
2022/03/01 00:59:53;;;;;;;19.97;15.90;;;1.50;99.90;;;;;;5011306;28;20212;-66
2022/03/01 01:02:19;;;;;;;19.00;14.73;;;1.30;99.90;;;;;;5014219;28;20176;-67
2022/03/01 01:04:44;;;;;;;16.90;14.40;;;1.20;99.90;;;;;;5031131;28;20175;-67
2022/03/01 01:07:10;;;;;;;19.33;14.43;;;1.20;99.90;;;;;;5031717;28;20175;-66
2022/03/01 01:09:36;;;;;;;17.00;15.20;;;1.20;99.90;;;;;;5012419;28;20230;-66
2022/03/01 01:12:01;;;;;;;16.23;14.53;;;1.10;99.90;;;;;;5012227;28;20553;-66
2022/03/01 01:14:27;;;;;;;16.33;14.60;;;1.20;99.90;;;;;;5030139;28;20194;-67
2022/03/01 01:16:53;;;;;;;19.60;15.17;;;1.20;99.90;;;;;;5016501;28;20183;-66
2022/03/01 01:19:18;;;;;;;18.10;15.13;;;1.20;99.90;;;;;;5014679;28;20357;-66
2022/03/01 01:24:28;;;;;;;17.80;15.00;;;1.20;99.90;;;;;;5026659;28;20183;-67
2022/03/01 01:26:54;;;;;;;17.53;15.73;;;1.20;99.90;;;;;;5012339;28;20180;-66
2022/03/01 01:29:19;;;;;;;17.07;14.93;;;1.10;99.90;;;;;;5013815;28;20204;-66
2022/03/01 01:31:45;;;;;;;18.40;14.70;;;1.10;99.90;;;;;;5032326;28;20192;-67
2022/03/01 01:34:10;;;;;;;19.03;14.70;;;1.10;99.90;;;;;;5030380;28;20175;-66
2022/03/01 01:36:36;;;;;;;18.83;15.43;;;1.00;99.90;;;;;;5022197;28;20844;-66
2022/03/01 01:39:02;;;;;;;19.70;14.63;;;1.00;99.90;;;;;;5010670;28;20220;-66
2022/03/01 01:41:27;;;;;;;18.07;15.47;;;1.00;99.90;;;;;;5031022;28;20531;-67
2022/03/01 01:43:53;;;;;;;21.83;16.37;;;1.10;99.90;;;;;;5027440;28;20180;-67
2022/03/01 01:46:18;;;;;;;18.60;16.00;;;1.10;99.90;;;;;;5034213;28;20175;-66
2022/03/01 01:48:44;;;;;;;15.83;14.13;;;1.10;99.90;;;;;;5050175;28;20194;-67
2022/03/01 01:51:10;;;;;;;17.30;15.50;;;1.10;99.90;;;;;;5050354;28;20186;-67
2022/03/01 01:53:36;;;;;;;20.37;15.20;;;1.10;99.90;;;;;;5046770;28;20197;-66
2022/03/01 01:56:02;;;;;;;18.07;16.13;;;1.10;99.90;;;;;;5031649;28;20202;-67
2022/03/01 01:58:28;;;;;;;19.20;15.03;;;1.10;99.90;;;;;;5028162;28;20227;-67
2022/03/01 02:00:53;;;;;;;20.87;15.77;;;1.20;99.90;;;;;;5010608;28;20700;-67
2022/03/01 02:03:20;;;;;;;15.77;14.20;;;1.20;99.90;;;;;;5011464;28;20626;-66
2022/03/01 02:05:46;;;;;;;19.30;14.47;;;1.20;99.90;;;;;;5031359;28;20699;-66
2022/03/01 02:08:11;;;;;;;19.93;14.93;;;1.30;99.90;;;;;;5031329;28;20175;-67
2022/03/01 02:10:37;;;;;;;19.07;15.03;;;1.30;99.90;;;;;;5029699;28;20194;-67
2022/03/01 02:13:02;;;;;;;17.17;14.70;;;1.40;99.90;;;;;;5029993;28;20274;-67
2022/03/01 02:15:28;;;;;;;24.17;15.77;;;1.40;99.90;;;;;;5013921;28;20242;-67
2022/03/01 02:17:54;;;;;;;16.60;14.87;;;1.50;99.90;;;;;;5011801;28;20570;-67
2022/03/01 02:20:23;;;;;;;18.47;15.07;;;1.50;99.90;;;;;;5011053;28;20215;-67
2022/03/01 02:22:53;;;;;;;21.20;15.40;;;1.60;99.90;;;;;;5011687;28;20637;-67
2022/03/01 02:25:19;;;;;;;22.97;14.40;;;1.60;99.90;;;;;;5024861;28;20219;-67
2022/03/01 02:27:45;;;;;;;18.00;14.30;;;1.60;99.90;;;;;;5028509;28;20206;-67
2022/03/01 02:30:11;;;;;;;19.50;15.27;;;1.60;99.90;;;;;;5009327;28;20677;-67
2022/03/01 02:32:39;;;;;;;17.57;14.67;;;1.60;99.90;;;;;;5010254;28;20180;-67
2022/03/01 02:35:06;;;;;;;17.30;15.10;;;1.60;99.90;;;;;;5015713;28;20184;-67
2022/03/01 02:37:31;;;;;;;21.73;15.00;;;1.60;99.90;;;;;;5022904;28;20183;-66
2022/03/01 02:39:57;;;;;;;19.27;14.27;;;1.60;99.90;;;;;;5068343;23;20237;-65
2022/03/01 02:42:23;;;;;;;19.60;14.90;;;1.60;99.90;;;;;;5053967;28;20182;-66
2022/03/01 02:44:49;;;;;;;19.50;13.90;;;1.60;99.90;;;;;;5054995;28;20255;-65
2022/03/01 02:47:16;;;;;;;19.73;13.63;;;1.60;99.90;;;;;;5054771;28;20257;-66
2022/03/01 02:49:41;;;;;;;16.67;14.23;;;1.60;99.90;;;;;;5054841;28;20281;-65
2022/03/01 02:52:07;;;;;;;16.77;14.10;;;1.60;99.90;;;;;;5054473;28;20255;-65
2022/03/01 02:54:33;;;;;;;16.73;14.80;;;1.50;99.90;;;;;;5054043;28;20266;-67
2022/03/01 02:57:01;;;;;;;15.20;13.60;;;1.50;99.90;;;;;;5055143;28;20712;-64
2022/03/01 02:59:28;;;;;;;14.40;12.97;;;1.50;99.90;;;;;;5054883;28;20207;-64
2022/03/01 03:01:55;;;;;;;14.63;13.17;;;1.50;99.90;;;;;;5054731;28;20262;-64
2022/03/01 03:04:21;;;;;;;14.70;13.20;;;1.50;99.90;;;;;;5054653;28;20171;-64
2022/03/01 03:06:47;;;;;;;15.30;13.60;;;1.50;99.90;;;;;;5054525;28;20175;-64
2022/03/01 03:09:13;;;;;;;17.07;13.53;;;1.50;99.90;;;;;;5053822;28;20618;-65
2022/03/01 03:11:38;;;;;;;15.57;14.00;;;1.50;99.90;;;;;;5053412;28;20186;-65
2022/03/01 03:14:04;;;;;;;16.30;13.23;;;1.50;99.90;;;;;;5053349;28;20194;-66
2022/03/01 03:16:30;;;;;;;14.13;12.80;;;1.60;99.90;;;;;;5053951;28;20179;-66
2022/03/01 03:18:56;;;;;;;15.33;12.77;;;1.60;99.90;;;;;;5054256;28;20187;-66
2022/03/01 03:21:22;;;;;;;16.00;13.20;;;1.60;99.90;;;;;;5054322;28;20695;-65
2022/03/01 03:23:47;;;;;;;14.27;12.63;;;1.60;99.90;;;;;;5053897;28;20178;-66
2022/03/01 03:26:13;;;;;;;13.57;12.27;;;1.70;99.90;;;;;;5053016;28;20167;-65
2022/03/01 03:28:39;;;;;;;13.60;12.40;;;1.70;99.90;;;;;;5054084;28;20598;-66
2022/03/01 03:31:04;;;;;;;13.67;12.10;;;1.70;99.90;;;;;;5054443;28;20201;-66
2022/03/01 03:33:30;;;;;;;13.77;12.30;;;1.70;99.90;;;;;;5053420;28;20221;-65
2022/03/01 03:35:57;;;;;;;13.80;12.33;;;1.70;99.90;;;;;;5054303;28;20178;-65
2022/03/01 03:38:24;;;;;;;15.20;13.60;;;1.80;99.90;;;;;;5053506;28;20257;-66
2022/03/01 03:40:50;;;;;;;13.60;12.10;;;1.80;99.90;;;;;;5054078;28;20228;-65
2022/03/01 03:43:16;;;;;;;14.63;12.83;;;1.70;99.90;;;;;;5053582;28;20163;-64
2022/03/01 03:45:41;;;;;;;13.83;12.53;;;1.60;99.90;;;;;;5063991;28;20198;-65
2022/03/01 03:48:08;;;;;;;15.10;13.60;;;1.60;99.90;;;;;;5074538;28;20214;-67
2022/03/01 03:50:33;;;;;;;14.83;13.33;;;1.60;99.90;;;;;;5073345;28;20214;-65
2022/03/01 03:52:59;;;;;;;15.50;13.43;;;1.50;99.90;;;;;;5055188;28;20167;-66
2022/03/01 03:55:25;;;;;;;17.77;13.73;;;1.60;99.90;;;;;;5053903;28;20175;-65
2022/03/01 03:57:51;;;;;;;14.17;12.70;;;1.50;99.90;;;;;;5053828;28;20174;-66
2022/03/01 04:00:18;;;;;;;13.20;11.90;;;1.50;99.90;;;;;;5053375;28;20203;-65
2022/03/01 04:02:45;;;;;;;15.13;12.93;;;1.50;99.90;;;;;;5053147;28;20586;-65
2022/03/01 04:05:12;;;;;;;14.27;12.77;;;1.60;99.90;;;;;;5053740;28;20236;-64
2022/03/01 04:07:41;;;;;;;12.67;11.47;;;1.60;99.90;;;;;;5052009;28;20179;-65
2022/03/01 04:10:08;;;;;;;14.70;13.20;;;1.70;99.90;;;;;;5053389;28;20197;-65
2022/03/01 04:12:33;;;;;;;14.47;13.07;;;1.70;99.90;;;;;;5052516;28;20183;-66
2022/03/01 04:14:59;;;;;;;14.83;12.80;;;1.70;99.90;;;;;;5053549;28;20258;-64
2022/03/01 04:17:25;;;;;;;17.67;12.13;;;1.80;99.90;;;;;;5053075;28;20175;-65
2022/03/01 04:19:51;;;;;;;15.50;12.23;;;1.70;99.90;;;;;;5053060;28;20217;-65
2022/03/01 04:22:16;;;;;;;15.57;12.60;;;1.80;99.90;;;;;;5052743;28;20207;-66
2022/03/01 04:24:42;;;;;;;14.20;12.60;;;1.80;99.90;;;;;;5053092;28;20644;-66
2022/03/01 04:27:07;;;;;;;13.30;12.07;;;1.70;99.90;;;;;;5052846;28;20574;-66
2022/03/01 04:29:34;;;;;;;12.77;11.53;;;1.80;99.90;;;;;;5053025;28;20221;-66
2022/03/01 04:32:00;;;;;;;13.53;12.27;;;1.80;99.90;;;;;;5052899;28;20536;-65
2022/03/01 04:34:25;;;;;;;14.33;12.63;;;1.80;99.90;;;;;;5053019;28;20635;-65
2022/03/01 04:36:51;;;;;;;14.20;12.83;;;1.80;99.90;;;;;;5052814;28;20182;-65
2022/03/01 04:39:16;;;;;;;13.40;12.10;;;1.80;99.90;;;;;;5051386;28;20241;-66
2022/03/01 04:41:43;;;;;;;15.23;13.17;;;1.80;99.90;;;;;;5053202;28;20178;-67
2022/03/01 04:44:09;;;;;;;14.30;12.87;;;1.80;99.90;;;;;;5052967;28;20581;-65
2022/03/01 04:46:34;;;;;;;12.77;11.57;;;1.70;99.90;;;;;;5052385;28;20205;-65
2022/03/01 04:49:00;;;;;;;14.23;12.73;;;1.80;99.90;;;;;;5052876;28;20190;-65
2022/03/01 04:51:26;;;;;;;14.03;12.00;;;1.80;99.90;;;;;;5052626;28;20775;-65
2022/03/01 04:53:52;;;;;;;13.33;12.03;;;1.70;99.90;;;;;;5052363;28;20244;-66
2022/03/01 04:56:18;;;;;;;14.33;12.93;;;1.80;99.90;;;;;;5051943;28;20546;-65
2022/03/01 04:58:44;;;;;;;12.43;10.87;;;1.80;99.90;;;;;;5052767;28;20194;-64
2022/03/01 05:01:09;;;;;;;12.67;11.37;;;1.80;99.90;;;;;;5052579;28;20774;-65
2022/03/01 05:03:35;;;;;;;13.10;11.70;;;1.80;99.90;;;;;;5052276;28;20171;-66
2022/03/01 05:06:00;;;;;;;15.47;11.53;;;1.80;99.90;;;;;;5052489;28;20718;-66
2022/03/01 05:08:30;;;;;;;13.30;12.00;;;1.80;99.90;;;;;;5052136;28;20228;-66
2022/03/01 05:10:57;;;;;;;14.43;11.93;;;1.80;99.90;;;;;;5052302;28;20185;-66
2022/03/01 05:13:23;;;;;;;13.63;12.33;;;1.80;99.90;;;;;;5052241;28;20167;-66
2022/03/01 05:15:48;;;;;;;13.40;12.03;;;1.80;99.90;;;;;;5052067;28;20182;-65
2022/03/01 05:18:14;;;;;;;14.13;11.70;;;1.80;99.90;;;;;;5051978;28;20261;-66
2022/03/01 05:20:39;;;;;;;13.47;12.00;;;1.80;99.90;;;;;;5051896;28;20226;-65
2022/03/01 05:23:05;;;;;;;13.13;11.83;;;1.80;99.90;;;;;;5051655;28;20233;-65
2022/03/01 05:25:31;;;;;;;14.00;12.73;;;1.80;99.90;;;;;;5052173;28;20171;-65
2022/03/01 05:27:56;;;;;;;12.73;11.53;;;1.80;99.90;;;;;;5051350;28;20281;-66
2022/03/01 05:30:23;;;;;;;14.07;12.50;;;1.80;99.90;;;;;;5052004;28;20268;-65
2022/03/01 05:32:52;;;;;;;13.77;12.40;;;1.90;99.90;;;;;;5051695;28;20179;-65
2022/03/01 05:35:24;;;;;;;13.77;12.27;;;1.90;99.90;;;;;;5052184;28;20324;-66
2022/03/01 05:37:52;;;;;;;12.23;11.23;;;2.00;99.90;;;;;;5031273;28;20543;-67
2022/03/01 05:40:19;;;;;;;13.60;11.67;;;2.00;99.90;;;;;;5031951;28;20517;-67
2022/03/01 05:42:45;;;;;;;14.27;12.07;;;2.00;99.90;;;;;;5050687;28;20217;-66
2022/03/01 05:45:11;;;;;;;12.97;11.67;;;2.00;99.90;;;;;;5052028;28;20664;-66
2022/03/01 05:47:41;;;;;;;15.63;12.50;;;2.10;99.90;;;;;;5050319;28;20178;-66
2022/03/01 05:50:09;;;;;;;11.73;10.63;;;2.10;99.90;;;;;;5051630;28;20221;-66
2022/03/01 05:52:35;;;;;;;14.87;12.60;;;2.10;99.90;;;;;;5051152;28;20644;-67
2022/03/01 05:55:00;;;;;;;15.73;12.63;;;2.20;99.90;;;;;;5051396;28;20198;-66
2022/03/01 05:57:28;;;;;;;13.80;12.40;;;2.20;99.90;;;;;;5051426;28;20182;-66
2022/03/01 05:59:55;;;;;;;12.33;11.07;;;2.20;99.90;;;;;;5051341;28;20691;-65
2022/03/01 06:02:21;;;;;;;12.60;11.40;;;2.20;99.90;;;;;;5051219;28;20171;-66
2022/03/01 06:04:46;;;;;;;15.37;11.77;;;2.20;99.90;;;;;;5050076;28;20181;-66
2022/03/01 06:07:12;;;;;;;13.80;12.37;;;2.20;99.90;;;;;;5052415;28;20706;-65
2022/03/01 06:09:38;;;;;;;13.87;12.53;;;2.30;99.90;;;;;;5057636;28;20221;-66
2022/03/01 06:12:04;;;;;;;14.07;12.53;;;2.30;99.90;;;;;;5058064;28;20583;-66
2022/03/01 06:14:29;;;;;;;14.33;12.30;;;2.40;99.90;;;;;;5057773;28;20659;-66
2022/03/01 06:16:55;;;;;;;11.70;10.57;;;2.40;99.90;;;;;;5058368;28;20174;-66
2022/03/01 06:19:20;;;;;;;13.47;12.17;;;2.40;99.90;;;;;;5057719;28;20679;-65
2022/03/01 06:21:46;;;;;;;13.07;11.77;;;2.40;99.90;;;;;;5058242;28;20174;-66
2022/03/01 06:24:12;;;;;;;12.77;11.57;;;2.40;99.90;;;;;;5058104;28;20183;-66
2022/03/01 06:26:38;;;;;;;13.10;11.70;;;2.50;99.90;;;;;;5057947;28;20726;-66
2022/03/01 06:29:04;;;;;;;15.03;12.00;;;2.50;99.90;;;;;;5057955;28;20190;-66
2022/03/01 06:31:30;;;;;;;14.10;12.20;;;2.50;99.90;;;;;;5056285;28;20178;-66
2022/03/01 06:33:56;;;;;;;13.63;12.33;;;2.50;99.90;;;;;;5056671;28;20174;-66
2022/03/01 06:36:25;;;;;;;12.17;10.83;;;2.60;99.90;;;;;;5057651;28;20179;-66
2022/03/01 06:38:51;;;;;;;13.60;12.40;;;2.60;99.90;;;;;;5057558;28;20602;-66
2022/03/01 06:41:17;;;;;;;15.07;13.53;;;2.60;99.90;;;;;;5058149;28;20198;-66
2022/03/01 06:43:42;;;;;;;14.53;13.13;;;2.70;99.90;;;;;;5057661;28;20171;-65
2022/03/01 06:46:08;;;;;;;13.27;11.90;;;2.80;99.90;;;;;;5058632;28;20175;-66
2022/03/01 06:48:34;;;;;;;14.13;12.47;;;2.80;99.90;;;;;;5073329;28;20163;-67
2022/03/01 06:51:00;;;;;;;13.30;12.00;;;2.90;99.90;;;;;;5078971;28;20363;-67
2022/03/01 06:53:26;;;;;;;21.10;12.67;;;2.90;99.90;;;;;;5073000;28;20182;-66
2022/03/01 06:55:52;;;;;;;14.50;12.47;;;3.00;99.90;;;;;;5056836;28;20576;-66
2022/03/01 06:58:17;;;;;;;17.53;12.73;;;3.10;99.90;;;;;;5056364;28;20178;-66
2022/03/01 07:00:44;;;;;;;16.27;13.13;;;3.20;99.90;;;;;;5057235;28;20226;-66
2022/03/01 07:03:10;;;;;;;15.83;13.33;;;3.20;99.90;;;;;;5057429;28;20253;-65
2022/03/01 07:05:36;;;;;;;14.57;13.07;;;3.30;99.90;;;;;;5057227;28;20329;-65
2022/03/01 07:08:02;;;;;;;14.40;12.63;;;3.30;99.90;;;;;;5056437;28;20556;-65
2022/03/01 07:10:27;;;;;;;14.43;12.03;;;3.30;99.90;;;;;;5057224;28;20211;-65
2022/03/01 07:12:53;;;;;;;14.57;13.07;;;3.30;99.90;;;;;;5057134;28;20269;-65
2022/03/01 07:15:19;;;;;;;13.37;11.70;;;3.30;99.90;;;;;;5057281;28;20179;-66
2022/03/01 07:17:47;;;;;;;13.57;12.20;;;3.30;99.90;;;;;;5056971;28;20236;-65
2022/03/01 07:20:14;;;;;;;13.07;11.83;;;3.30;99.90;;;;;;5054761;28;20673;-65
2022/03/01 07:22:40;;;;;;;13.93;12.50;;;3.30;99.90;;;;;;5053928;28;20179;-66
2022/03/01 07:25:07;;;;;;;13.50;12.10;;;3.40;99.90;;;;;;5054412;28;20174;-65
2022/03/01 07:27:33;;;;;;;13.30;11.83;;;3.40;99.90;;;;;;5054064;28;20202;-66
2022/03/01 07:29:59;;;;;;;15.10;12.23;;;3.50;99.90;;;;;;5054193;28;20199;-66
2022/03/01 07:32:25;;;;;;;12.60;10.93;;;3.60;99.90;;;;;;5053761;28;20179;-66
2022/03/01 07:34:50;;;;;;;12.87;11.33;;;3.60;99.90;;;;;;5052683;28;20181;-65
2022/03/01 07:37:16;;;;;;;13.37;11.47;;;3.60;99.90;;;;;;5053782;28;20244;-66
2022/03/01 07:39:42;;;;;;;12.87;11.53;;;3.70;99.90;;;;;;5052429;28;20305;-66
2022/03/01 07:42:07;;;;;;;16.93;12.17;;;3.70;99.90;;;;;;5053450;28;20183;-65
2022/03/01 07:44:37;;;;;;;14.50;13.10;;;3.70;99.90;;;;;;5053771;28;20548;-65
2022/03/01 07:47:07;;;;;;;13.73;12.33;;;3.80;99.90;;;;;;5053540;28;20546;-65
2022/03/01 07:49:33;;;;;;;13.97;12.57;;;3.80;99.90;;;;;;5053820;28;20195;-66
2022/03/01 07:51:58;;;;;;;17.87;12.03;;;3.90;99.90;;;;;;5053417;28;20190;-66
2022/03/01 07:54:24;;;;;;;15.63;12.17;;;4.10;99.90;;;;;;5053209;28;20659;-65
2022/03/01 07:56:50;;;;;;;13.93;12.43;;;4.20;99.90;;;;;;5053594;28;20240;-66
2022/03/01 07:59:15;;;;;;;13.70;12.23;;;4.40;99.90;;;;;;5053316;28;20253;-66
2022/03/01 08:01:41;;;;;;;18.37;12.20;;;4.50;99.90;;;;;;5053658;28;20171;-66
2022/03/01 08:04:07;;;;;;;14.73;12.37;;;4.60;99.90;;;;;;5053283;28;20605;-67
2022/03/01 08:06:33;;;;;;;14.10;11.77;;;4.70;99.90;;;;;;5053570;28;20174;-67
2022/03/01 08:08:58;;;;;;;13.83;11.70;;;4.70;99.90;;;;;;5052068;28;20229;-66
2022/03/01 08:11:24;;;;;;;12.83;11.50;;;4.80;99.90;;;;;;5053620;28;20178;-65
2022/03/01 08:13:50;;;;;;;14.93;12.87;;;4.90;99.90;;;;;;5051484;28;20186;-67
2022/03/01 08:16:16;;;;;;;13.43;11.67;;;5.10;99.90;;;;;;5054679;28;20297;-67
2022/03/01 08:18:42;;;;;;;17.83;12.43;;;5.10;99.90;;;;;;5055675;28;20585;-67
2022/03/01 08:21:09;;;;;;;14.37;11.77;;;5.30;99.90;;;;;;5053628;28;20289;-67
2022/03/01 08:23:36;;;;;;;13.03;10.23;;;5.60;99.90;;;;;;5052680;28;20171;-65
2022/03/01 08:26:04;;;;;;;13.90;11.50;;;6.10;99.90;;;;;;5053222;28;20178;-66
2022/03/01 08:28:29;;;;;;;15.63;11.83;;;6.60;99.90;;;;;;5052496;28;20175;-67
2022/03/01 08:30:55;;;;;;;17.00;11.67;;;7.00;99.90;;;;;;5052227;28;20181;-67
2022/03/01 08:33:21;;;;;;;13.23;11.37;;;7.30;99.90;;;;;;5052483;28;20179;-67
2022/03/01 08:35:48;;;;;;;14.60;11.67;;;7.70;99.90;;;;;;5052773;28;20184;-66
2022/03/01 08:38:14;;;;;;;14.83;10.57;;;8.30;99.90;;;;;;5051229;28;20183;-66
2022/03/01 08:40:40;;;;;;;14.53;11.03;;;8.70;99.90;;;;;;5052430;28;20222;-67
2022/03/01 08:43:10;;;;;;;16.87;11.20;;;9.00;99.90;;;;;;5052215;28;20758;-67
2022/03/01 08:45:36;;;;;;;13.50;11.43;;;9.10;99.90;;;;;;5052357;28;20213;-66
2022/03/01 08:48:03;;;;;;;12.93;11.63;;;9.10;99.90;;;;;;5052292;28;20210;-67
2022/03/01 08:50:29;;;;;;;15.17;12.00;;;9.00;99.90;;;;;;5052504;28;20190;-67
2022/03/01 08:52:55;;;;;;;14.43;11.97;;;8.60;99.90;;;;;;5052059;28;20525;-65
2022/03/01 08:55:21;;;;;;;15.10;11.57;;;8.30;99.90;;;;;;5052362;28;20190;-67
2022/03/01 08:57:46;;;;;;;14.33;12.00;;;8.10;99.90;;;;;;5052132;28;20187;-65
2022/03/01 09:00:14;;;;;;;15.43;12.17;;;8.00;99.90;;;;;;5052179;28;20210;-65
2022/03/01 09:02:40;;;;;;;15.77;11.83;;;7.90;99.90;;;;;;5051774;28;20181;-66
2022/03/01 09:05:06;;;;;;;15.40;11.77;;;7.80;99.90;;;;;;5052246;28;20242;-68
2022/03/01 09:07:32;;;;;;;14.87;11.10;;;7.90;99.90;;;;;;5051827;28;20171;-66
2022/03/01 09:09:58;;;;;;;14.63;11.40;;;8.00;99.90;;;;;;5052081;28;20202;-68
2022/03/01 09:12:24;;;;;;;17.13;12.37;;;8.00;99.90;;;;;;5051437;28;20179;-66
2022/03/01 09:14:50;;;;;;;13.13;11.73;;;8.00;99.90;;;;;;5051910;28;20194;-65
2022/03/01 09:17:15;;;;;;;13.20;11.80;;;7.90;99.90;;;;;;5051914;28;20193;-67
2022/03/01 09:19:41;;;;;;;12.87;11.57;;;7.90;99.90;;;;;;5051596;28;20205;-67
2022/03/01 09:22:07;;;;;;;14.77;12.77;;;7.90;99.90;;;;;;5051665;28;20202;-67
2022/03/01 09:24:32;;;;;;;17.73;12.93;;;7.90;99.90;;;;;;5051730;28;20628;-66
2022/03/01 09:27:01;;;;;;;14.50;12.97;;;7.80;99.90;;;;;;5052048;28;20663;-68
2022/03/01 09:29:28;;;;;;;15.87;13.47;;;7.70;99.90;;;;;;5050529;28;20548;-67
2022/03/01 09:31:53;;;;;;;13.90;12.13;;;7.70;99.90;;;;;;5051883;28;20205;-66
2022/03/01 09:34:19;;;;;;;12.87;11.53;;;7.60;99.90;;;;;;5051374;28;20171;-66
2022/03/01 09:36:45;;;;;;;13.47;12.13;;;7.40;99.90;;;;;;5051775;28;20655;-67
2022/03/01 09:39:10;;;;;;;14.93;11.57;;;7.30;99.90;;;;;;5049660;28;20219;-67
2022/03/01 09:41:37;;;;;;;18.90;12.10;;;7.20;99.90;;;;;;5051286;28;20615;-67
2022/03/01 09:44:04;;;;;;;14.67;12.30;;;7.10;99.90;;;;;;5050501;28;20665;-68
2022/03/01 09:46:30;;;;;;;16.70;12.17;;;7.00;99.90;;;;;;5051152;28;20179;-68
2022/03/01 09:48:56;;;;;;;14.17;12.23;;;7.00;99.90;;;;;;5051318;28;20197;-67
2022/03/01 09:51:23;;;;;;;13.87;12.17;;;7.10;99.90;;;;;;5051142;28;20538;-67
2022/03/01 09:53:51;;;;;;;16.57;11.43;;;7.40;99.90;;;;;;5051021;28;20171;-68
2022/03/01 09:56:18;;;;;;;12.90;11.43;;;8.00;99.90;;;;;;5050830;28;20281;-68
2022/03/01 09:58:45;;;;;;;12.90;11.57;;;8.70;99.90;;;;;;5050979;28;20256;-65
2022/03/01 10:01:12;;;;;;;13.10;11.37;;;9.50;99.90;;;;;;5050881;28;20217;-68
2022/03/01 10:03:38;;;;;;;12.47;10.60;;;10.20;99.90;;;;;;5050434;28;20178;-68
2022/03/01 10:06:12;;;;;;;13.67;11.00;;;10.70;99.50;;;;;;5051543;28;20186;-67
2022/03/01 10:08:38;;;;;;;13.83;9.97;;;11.30;98.80;;;;;;5050817;28;20640;-67
2022/03/01 10:11:05;;;;;;;11.90;10.40;;;11.80;98.10;;;;;;5049733;28;20228;-66
2022/03/01 10:13:34;;;;;;;12.27;10.97;;;12.20;96.30;;;;;;5050279;28;20187;-66
2022/03/01 10:16:06;;;;;;;13.37;11.17;;;12.50;94.80;;;;;;5051553;28;20185;-65
2022/03/01 10:18:35;;;;;;;12.43;10.37;;;12.80;95.70;;;;;;5051041;28;20265;-66
2022/03/01 10:21:05;;;;;;;16.67;10.83;;;13.30;94.00;;;;;;5051191;28;20210;-66
2022/03/01 10:23:32;;;;;;;11.47;10.17;;;13.50;93.70;;;;;;5050387;28;20175;-66
2022/03/01 10:26:09;;;;;;;13.13;10.33;;;13.50;93.60;;;;;;5051372;28;20228;-66
2022/03/01 10:28:37;;;;;;;12.47;11.10;;;13.50;93.40;;;;;;5050704;28;20701;-67
2022/03/01 10:31:10;;;;;;;14.13;11.10;;;13.30;93.00;;;;;;5049481;28;20262;-66
2022/03/01 10:33:38;;;;;;;14.27;11.10;;;13.10;91.50;;;;;;5050159;28;20189;-65
2022/03/01 10:36:04;;;;;;;12.70;11.07;;;12.60;91.50;;;;;;5050877;28;20236;-68
2022/03/01 10:38:29;;;;;;;14.47;10.70;;;12.00;92.50;;;;;;5048960;28;20178;-65
2022/03/01 10:40:58;;;;;;;13.17;11.73;;;11.60;92.50;;;;;;5050635;28;20707;-68
2022/03/01 10:43:25;;;;;;;13.47;11.20;;;11.30;92.60;;;;;;5050237;28;20183;-67
2022/03/01 10:45:52;;;;;;;14.20;11.03;;;11.10;93.30;;;;;;5050929;28;20205;-66
2022/03/01 10:48:34;;;;;;;11.50;10.23;;;10.90;93.60;;;;;;5050677;28;20174;-66
2022/03/01 10:51:08;;;;;;;12.60;11.27;;;10.90;93.20;;;;;;5049582;28;20614;-67
2022/03/01 10:53:45;;;;;;;14.23;11.03;;;10.80;93.30;;;;;;5048935;28;20201;-67
2022/03/01 10:56:12;;;;;;;11.40;10.07;;;10.80;93.00;;;;;;5054500;28;20202;-67
2022/03/01 10:58:39;;;;;;;12.10;10.90;;;10.80;93.90;;;;;;5054220;28;20179;-66
2022/03/01 11:01:06;;;;;;;14.70;10.50;;;10.80;93.60;;;;;;5054213;28;20245;-67
2022/03/01 11:03:32;;;;;;;15.27;10.97;;;10.90;94.30;;;;;;5053978;28;20205;-66
2022/03/01 11:05:59;;;;;;;15.93;11.07;;;10.90;92.40;;;;;;5054272;28;20170;-67
2022/03/01 11:08:37;;;;;;;12.03;10.63;;;10.90;92.50;;;;;;5054102;28;20178;-67
2022/03/01 11:11:09;;;;;;;12.30;10.87;;;11.00;91.80;;;;;;5053949;28;20656;-67
2022/03/01 11:13:39;;;;;;;12.57;10.90;;;11.00;92.40;;;;;;5053954;28;20296;-68
2022/03/01 11:16:39;;;;;;;11.63;10.47;;;11.00;91.80;;;;;;5052622;28;20513;-66
2022/03/01 11:19:38;;;;;;;13.30;10.50;;;11.00;91.50;;;;;;5053915;28;20198;-66
2022/03/01 11:22:05;;;;;;;12.30;10.33;;;10.90;91.80;;;;;;5034036;28;20179;-67
2022/03/01 11:24:31;;;;;;;12.13;10.93;;;11.00;92.60;;;;;;5033910;28;20176;-67
2022/03/01 11:27:08;;;;;;;13.57;11.00;;;11.20;93.00;;;;;;5053109;28;20683;-66
2022/03/01 11:29:39;;;;;;;11.70;9.73;;;11.30;92.20;;;;;;5053658;28;20289;-66
2022/03/01 11:32:12;;;;;;;10.53;9.43;;;11.40;90.60;;;;;;5053537;28;20179;-66
2022/03/01 11:34:37;;;;;;;12.00;10.63;;;11.40;89.90;;;;;;5053647;28;20167;-65
2022/03/01 11:37:03;;;;;;;11.47;10.37;;;11.20;90.50;;;;;;5053606;28;20189;-66
2022/03/01 11:39:31;;;;;;;11.77;10.57;;;11.20;91.30;;;;;;5053255;28;20213;-65
2022/03/01 11:42:04;;;;;;;11.13;10.00;;;11.30;91.20;;;;;;5053666;28;20163;-66
2022/03/01 11:44:36;;;;;;;11.33;9.03;;;11.40;91.20;;;;;;5053391;28;20186;-65
2022/03/01 11:47:07;;;;;;;10.23;9.33;;;11.60;88.80;;;;;;5053554;28;20508;-67
2022/03/01 11:49:34;;;;;;;11.67;10.47;;;11.60;86.50;;;;;;5053382;28;20686;-65
2022/03/01 11:52:01;;;;;;;13.03;9.17;;;11.50;88.10;;;;;;5053659;28;20260;-65
2022/03/01 11:54:29;;;;;;;13.37;11.23;;;11.50;89.00;;;;;;5052923;28;20181;-65
2022/03/01 11:56:57;;;;;;;12.13;10.40;;;11.60;90.20;;;;;;5053446;28;20167;-65
2022/03/01 11:59:24;;;;;;;11.13;10.03;;;11.70;88.80;;;;;;5053017;28;20659;-67
2022/03/01 12:01:53;;;;;;;11.90;10.00;;;11.70;88.50;;;;;;5053476;28;20175;-66
2022/03/01 12:04:21;;;;;;;14.20;10.63;;;11.60;88.30;;;;;;5052962;28;20175;-65
2022/03/01 12:06:52;;;;;;;11.87;9.53;;;11.50;88.70;;;;;;5052295;28;20177;-66
2022/03/01 12:09:18;;;;;;;10.87;9.77;;;11.40;88.30;;;;;;5052995;28;20194;-65
2022/03/01 12:11:45;;;;;;;11.30;10.07;;;11.40;87.90;;;;;;5053174;28;20178;-66
2022/03/01 12:14:17;;;;;;;11.00;9.93;;;11.40;87.50;;;;;;5052662;28;20171;-65
2022/03/01 12:16:43;;;;;;;11.27;10.03;;;11.40;87.50;;;;;;5053004;28;20171;-65
2022/03/01 12:19:21;;;;;;;14.90;9.53;;;11.40;86.80;;;;;;5052691;28;20199;-65
2022/03/01 12:21:54;;;;;;;10.73;9.63;;;11.50;87.50;;;;;;5052514;28;20170;-66
2022/03/01 12:24:22;;;;;;;10.73;9.63;;;11.80;89.80;;;;;;5051681;28;20175;-65
2022/03/01 12:26:53;;;;;;;11.53;9.83;;;11.90;84.80;;;;;;5052944;28;20163;-65
2022/03/01 12:29:21;;;;;;;12.23;10.07;;;12.00;84.90;;;;;;5052571;28;20766;-65
2022/03/01 12:31:56;;;;;;;11.80;9.33;;;12.10;85.90;;;;;;5053082;28;20202;-66
2022/03/01 12:34:30;;;;;;;11.43;10.27;;;12.10;82.60;;;;;;5052565;28;20174;-66
2022/03/01 12:36:58;;;;;;;12.13;10.10;;;12.10;82.90;;;;;;5052713;28;20202;-65